Time;durP1;ratioP1;P1;durP2;ratioP2;P2;SDS_P1;SDS_P2;PMS_P1;PMS_P2;Temp;Humidity;BMP_temperature;BMP_pressure;BME280_temperature;BME280_humidity;BME280_pressure;Samples;Min_cycle;Max_cycle;Signal;HPM_P1;HPM_P2
2022/07/06 00:01:22;;;;;;;6.70;2.00;;;;;;;14.93;76.61;100505.49;106188;1274;22576;-58
2022/07/06 00:03:50;;;;;;;8.10;2.40;;;;;;;14.91;76.71;100502.36;106327;1273;22920;-59
2022/07/06 00:06:19;;;;;;;7.60;2.10;;;;;;;14.88;77.04;100498.92;106273;1274;25178;-60
2022/07/06 00:08:48;;;;;;;6.50;2.10;;;;;;;14.86;76.62;100500.13;106276;1273;23970;-61
2022/07/06 00:11:17;;;;;;;6.90;2.20;;;;;;;14.84;76.77;100500.23;106210;1273;22553;-58
2022/07/06 00:13:46;;;;;;;6.50;2.00;;;;;;;14.81;76.85;100498.67;106281;1273;22538;-59
2022/07/06 00:16:15;;;;;;;10.10;1.80;;;;;;;14.78;76.91;100502.80;106230;1273;22537;-56
2022/07/06 00:18:44;;;;;;;8.00;2.10;;;;;;;14.75;77.03;100503.25;106307;1273;25925;-59
2022/07/06 00:21:13;;;;;;;8.00;2.60;;;;;;;14.72;77.09;100499.23;106199;1274;22647;-57
2022/07/06 00:23:42;;;;;;;7.60;2.20;;;;;;;14.69;77.19;100500.14;106211;1273;25404;-61
2022/07/06 00:26:10;;;;;;;8.90;2.00;;;;;;;14.68;77.32;100499.30;106278;1273;25503;-58
2022/07/06 00:28:39;;;;;;;6.50;1.80;;;;;;;14.65;77.24;100498.92;106215;1273;23973;-60
2022/07/06 00:31:08;;;;;;;7.90;2.20;;;;;;;14.62;77.34;100500.80;106275;1273;24252;-57
2022/07/06 00:33:38;;;;;;;7.00;2.00;;;;;;;14.59;77.49;100504.73;106254;1273;23073;-56
2022/07/06 00:36:07;;;;;;;7.30;2.40;;;;;;;14.56;77.47;100503.58;106234;1274;22557;-57
2022/07/06 00:38:36;;;;;;;7.00;2.00;;;;;;;14.53;77.37;100504.11;106185;1273;25376;-59
2022/07/06 00:41:05;;;;;;;8.30;2.90;;;;;;;14.52;77.47;100500.89;106216;1273;25394;-58
2022/07/06 00:43:48;;;;;;;12.00;2.30;;;;;;;14.51;77.51;100501.44;106206;1273;22694;-58
2022/07/06 00:46:19;;;;;;;5.60;1.70;;;;;;;14.48;77.66;100503.46;106249;1273;22717;-55
2022/07/06 00:48:46;;;;;;;;;;;;;;;14.44;77.76;100501.70;106290;1273;25524;-55
2022/07/06 00:51:16;;;;;;;6.70;2.20;;;;;;;14.41;77.96;100498.98;106169;1273;24206;-57
2022/07/06 00:53:46;;;;;;;7.40;2.50;;;;;;;14.39;78.06;100490.98;106295;1273;25541;-56
2022/07/06 00:56:15;;;;;;;;;;;;;;;14.39;78.40;100491.96;106215;1273;22535;-58
2022/07/06 00:58:44;;;;;;;9.90;2.50;;;;;;;14.37;78.39;100492.05;106257;1273;22535;-58
2022/07/06 01:01:12;;;;;;;7.80;2.30;;;;;;;14.38;78.48;100488.58;106289;1273;22571;-59
2022/07/06 01:03:42;;;;;;;7.80;2.50;;;;;;;14.38;78.41;100490.77;106228;1274;24152;-57
2022/07/06 01:06:11;;;;;;;9.80;3.10;;;;;;;14.37;78.61;100491.43;106266;1273;22971;-60
2022/07/06 01:08:40;;;;;;;8.40;2.60;;;;;;;14.36;78.67;100491.89;106353;1273;25312;-59
2022/07/06 01:11:09;;;;;;;9.50;2.50;;;;;;;14.35;78.77;100493.00;106257;1273;22547;-57
2022/07/06 01:13:38;;;;;;;9.40;2.50;;;;;;;14.35;78.77;100495.64;106253;1273;22603;-58
2022/07/06 01:16:08;;;;;;;8.40;2.70;;;;;;;14.35;78.66;100487.14;106247;1273;22534;-58
2022/07/06 01:18:38;;;;;;;6.70;2.30;;;;;;;14.35;78.76;100491.16;106246;1273;24126;-58
2022/07/06 01:21:12;;;;;;;8.20;3.20;;;;;;;14.33;78.98;100490.73;106391;1273;25390;-59
2022/07/06 01:23:43;;;;;;;7.60;3.40;;;;;;;14.31;79.06;100492.05;106301;1273;24228;-57
2022/07/06 01:26:17;;;;;;;9.30;3.40;;;;;;;14.29;79.38;100489.28;106149;1273;22645;-57
2022/07/06 01:28:49;;;;;;;10.50;3.50;;;;;;;14.30;79.12;100489.48;106154;1273;24410;-57
2022/07/06 01:31:20;;;;;;;13.20;3.90;;;;;;;14.29;79.45;100486.67;106278;1273;22552;-59
2022/07/06 01:33:50;;;;;;;10.30;3.90;;;;;;;14.29;79.43;100484.16;106229;1274;22560;-57
2022/07/06 01:36:19;;;;;;;10.60;3.80;;;;;;;14.29;79.35;100487.44;106325;1273;25366;-61
2022/07/06 01:38:50;;;;;;;11.00;4.00;;;;;;;14.29;79.36;100491.15;106201;1273;22761;-58
2022/07/06 01:41:19;;;;;;;8.50;3.70;;;;;;;14.27;79.31;100489.84;106265;1273;24293;-58
2022/07/06 01:43:49;;;;;;;10.70;3.70;;;;;;;14.25;79.33;100487.89;106298;1274;22551;-57
2022/07/06 01:46:19;;;;;;;8.30;3.20;;;;;;;14.24;79.47;100490.07;106213;1273;24306;-56
2022/07/06 01:48:48;;;;;;;9.70;4.00;;;;;;;14.23;79.45;100488.79;106240;1272;22701;-57
2022/07/06 01:51:17;;;;;;;8.70;3.30;;;;;;;14.22;79.51;100482.35;106228;1274;25386;-58
2022/07/06 01:53:47;;;;;;;9.70;4.00;;;;;;;14.20;79.44;100478.85;106185;1273;24588;-57
2022/07/06 01:56:17;;;;;;;10.40;3.90;;;;;;;14.17;79.61;100478.90;106118;1273;22761;-59
2022/07/06 01:58:46;;;;;;;8.90;3.60;;;;;;;14.13;79.70;100481.61;106203;1274;22557;-58
2022/07/06 02:01:17;;;;;;;11.50;3.90;;;;;;;14.09;79.81;100483.41;106244;1273;22616;-56
2022/07/06 02:03:46;;;;;;;10.50;3.20;;;;;;;14.05;79.79;100484.65;106211;1273;22566;-58
2022/07/06 02:06:15;;;;;;;9.30;3.30;;;;;;;14.01;79.84;100491.86;106238;1273;26563;-57
2022/07/06 02:08:44;;;;;;;10.30;3.60;;;;;;;13.97;79.86;100498.00;106257;1273;24217;-58
2022/07/06 02:11:13;;;;;;;8.90;3.20;;;;;;;13.93;80.05;100505.61;106304;1273;26517;-57
2022/07/06 02:13:42;;;;;;;12.40;3.10;;;;;;;13.89;80.05;100503.20;106174;1273;22557;-57
2022/07/06 02:16:12;;;;;;;13.10;4.90;;;;;;;13.86;79.99;100502.29;106270;1274;22532;-57
2022/07/06 02:18:40;;;;;;;14.90;2.80;;;;;;;13.81;80.04;100497.23;106280;1274;22486;-56
2022/07/06 02:21:10;;;;;;;20.00;3.60;;;;;;;13.73;79.89;100500.64;106358;1274;22604;-55
2022/07/06 02:23:39;;;;;;;17.50;3.20;;;;;;;13.69;80.22;100499.16;106206;1274;24277;-58
2022/07/06 02:26:08;;;;;;;12.30;2.80;;;;;;;13.66;80.46;100501.02;106259;1274;25383;-54
2022/07/06 02:28:36;;;;;;;12.30;2.80;;;;;;;13.64;80.15;100498.99;106275;1274;25389;-57
2022/07/06 02:31:05;;;;;;;13.10;3.10;;;;;;;13.58;80.30;100493.63;106243;1274;25385;-58
2022/07/06 02:33:34;;;;;;;12.20;2.70;;;;;;;13.55;80.35;100489.02;106222;1274;27217;-57
2022/07/06 02:36:03;;;;;;;9.20;2.10;;;;;;;13.53;80.36;100486.84;106237;1274;25455;-57
2022/07/06 02:38:33;;;;;;;8.10;2.30;;;;;;;13.52;80.26;100484.42;106335;1273;25273;-57
2022/07/06 02:41:02;;;;;;;13.30;2.50;;;;;;;13.50;80.29;100488.70;106623;1260;22596;-53
2022/07/06 02:43:31;;;;;;;9.80;2.90;;;;;;;13.48;80.30;100490.21;105622;1270;22563;-52
2022/07/06 02:46:00;;;;;;;10.20;2.90;;;;;;;13.44;80.48;100494.55;107426;1271;22579;-49
2022/07/06 02:48:29;;;;;;;7.60;2.90;;;;;;;13.44;80.55;100497.50;105936;1271;22536;-54
2022/07/06 02:50:58;;;;;;;14.20;3.90;;;;;;;13.41;80.50;100495.54;105689;1273;22544;-49
2022/07/06 02:53:27;;;;;;;10.20;3.20;;;;;;;13.40;80.67;100499.55;105987;1273;22704;-51
2022/07/06 02:55:58;;;;;;;9.20;3.50;;;;;;;13.39;80.54;100496.13;106087;1273;25646;-53
2022/07/06 02:58:27;;;;;;;13.30;3.00;;;;;;;13.37;80.73;100492.83;105512;1272;22563;-49
2022/07/06 03:00:56;;;;;;;13.00;4.30;;;;;;;13.36;81.25;100489.61;109762;1272;23191;-49
2022/07/06 03:03:25;;;;;;;10.00;3.70;;;;;;;13.36;81.53;100490.73;107221;1272;24230;-49
2022/07/06 03:05:54;;;;;;;9.80;3.80;;;;;;;13.37;81.48;100493.76;105909;1274;23337;-54
2022/07/06 03:08:23;;;;;;;11.40;4.20;;;;;;;13.37;81.40;100493.13;105544;1274;412381;-54
2022/07/06 03:10:52;;;;;;;10.00;3.60;;;;;;;13.35;81.62;100491.18;105798;1273;22547;-51
2022/07/06 03:13:21;;;;;;;12.90;3.50;;;;;;;13.37;81.65;100491.10;105843;1271;22569;-49
2022/07/06 03:15:50;;;;;;;9.70;3.10;;;;;;;13.38;81.65;100493.35;105836;1270;22571;-51
2022/07/06 03:18:19;;;;;;;11.20;4.10;;;;;;;13.39;81.68;100487.35;105690;1271;22700;-51
2022/07/06 03:20:48;;;;;;;14.30;4.40;;;;;;;13.41;82.00;100487.27;105772;1271;22579;-54
2022/07/06 03:23:17;;;;;;;10.20;3.90;;;;;;;13.42;82.24;100478.62;105667;1274;24425;-51
2022/07/06 03:25:46;;;;;;;9.20;3.60;;;;;;;13.43;82.36;100481.90;105887;1271;22554;-51
2022/07/06 03:28:15;;;;;;;10.80;3.70;;;;;;;13.45;82.53;100480.18;105856;1271;22595;-53
2022/07/06 03:30:44;;;;;;;12.30;4.20;;;;;;;13.47;82.70;100482.77;106125;1271;24278;-52
2022/07/06 03:33:14;;;;;;;12.30;4.50;;;;;;;13.51;82.87;100481.17;105937;1270;22731;-50
2022/07/06 03:35:43;;;;;;;14.20;4.80;;;;;;;13.56;83.14;100484.73;105898;1272;22553;-52
2022/07/06 03:38:12;;;;;;;13.00;4.90;;;;;;;13.58;83.22;100493.89;105845;1271;22691;-50
2022/07/06 03:40:41;;;;;;;10.30;3.90;;;;;;;13.59;83.69;100500.17;105825;1271;22687;-49
2022/07/06 03:43:10;;;;;;;10.60;4.20;;;;;;;13.59;83.84;100510.27;105973;1271;22544;-52
2022/07/06 03:45:39;;;;;;;14.30;6.70;;;;;;;13.60;84.23;100504.20;106002;1271;22712;-52
2022/07/06 03:48:08;;;;;;;13.80;6.00;;;;;;;13.64;84.37;100501.24;105848;1274;25339;-51
2022/07/06 03:50:38;;;;;;;13.50;6.70;;;;;;;13.71;84.61;100502.15;105839;1273;22538;-53
2022/07/06 03:53:07;;;;;;;16.30;7.70;;;;;;;13.77;84.77;100516.74;105704;1274;22558;-52
2022/07/06 03:55:36;;;;;;;16.70;7.60;;;;;;;13.82;85.30;100539.23;105688;1274;22556;-52
2022/07/06 03:58:04;;;;;;;17.60;9.40;;;;;;;13.87;85.71;100552.41;105887;1271;24681;-53
2022/07/06 04:00:34;;;;;;;18.40;9.50;;;;;;;13.94;86.41;100555.34;105610;1273;26543;-52
2022/07/06 04:03:04;;;;;;;21.10;10.90;;;;;;;14.07;86.88;100543.73;105657;1274;25245;-52
2022/07/06 04:05:33;;;;;;;20.40;10.90;;;;;;;14.18;86.96;100542.81;105943;1274;25474;-52
2022/07/06 04:08:02;;;;;;;20.50;9.30;;;;;;;14.32;86.94;100545.73;105808;1270;22563;-53
2022/07/06 04:10:30;;;;;;;25.40;13.40;;;;;;;14.45;86.56;100543.28;105749;1273;26671;-53
2022/07/06 04:12:59;;;;;;;19.90;12.30;;;;;;;14.57;86.27;100548.33;105733;1273;22550;-50
2022/07/06 04:15:28;;;;;;;19.50;10.10;;;;;;;14.68;85.80;100551.93;106100;1271;22707;-52
2022/07/06 04:17:57;;;;;;;13.10;6.30;;;;;;;14.78;85.24;100550.79;106122;1273;22560;-51
2022/07/06 04:20:26;;;;;;;13.10;5.70;;;;;;;14.85;85.06;100554.41;105847;1271;25530;-52
2022/07/06 04:22:56;;;;;;;13.90;5.00;;;;;;;14.91;84.71;100556.75;105698;1274;25271;-52
2022/07/06 04:25:25;;;;;;;9.70;4.00;;;;;;;14.98;84.43;100560.73;105812;1275;25236;-53
2022/07/06 04:27:54;;;;;;;12.90;3.90;;;;;;;15.03;84.03;100564.89;105801;1273;22627;-53
2022/07/06 04:30:23;;;;;;;10.70;3.30;;;;;;;15.07;83.90;100565.77;105933;1271;25412;-52
2022/07/06 04:32:52;;;;;;;9.10;3.10;;;;;;;15.12;83.66;100574.62;106067;1274;25260;-53
2022/07/06 04:35:20;;;;;;;11.00;3.10;;;;;;;15.15;83.71;100575.25;105691;1273;24351;-52
2022/07/06 04:37:49;;;;;;;8.30;3.50;;;;;;;15.17;83.43;100586.03;105767;1273;22608;-52
2022/07/06 04:40:18;;;;;;;10.60;2.50;;;;;;;15.18;83.40;100591.58;105660;1274;22532;-52
2022/07/06 04:42:47;;;;;;;11.30;3.40;;;;;;;15.18;83.25;100597.52;105890;1274;25240;-53
2022/07/06 04:45:16;;;;;;;13.70;3.20;;;;;;;15.18;83.51;100603.19;105731;1274;22561;-49
2022/07/06 04:47:45;;;;;;;11.80;3.80;;;;;;;15.16;83.72;100609.20;105766;1274;22554;-50
2022/07/06 04:50:14;;;;;;;10.90;3.50;;;;;;;15.12;84.13;100613.94;105814;1274;24371;-58
2022/07/06 04:52:43;;;;;;;13.20;3.60;;;;;;;15.08;84.71;100617.02;105791;1272;25183;-57
2022/07/06 04:55:14;;;;;;;11.80;2.90;;;;;;;14.98;85.20;100619.61;105763;1274;23832;-61
2022/07/06 04:57:43;;;;;;;7.50;1.80;;;;;;;14.82;85.62;100632.52;105958;1274;25355;-63
2022/07/06 05:00:16;;;;;;;10.40;2.10;;;;;;;14.64;86.26;100629.20;105622;1274;25385;-57
2022/07/06 05:02:45;;;;;;;5.40;1.40;;;;;;;14.48;86.54;100625.95;107805;1274;24255;-56
2022/07/06 05:05:14;;;;;;;13.60;3.10;;;;;;;14.38;86.98;100631.16;106766;1271;22704;-54
2022/07/06 05:07:43;;;;;;;13.30;4.90;;;;;;;14.31;87.39;100637.38;105779;1271;24412;-55
2022/07/06 05:10:13;;;;;;;18.70;11.20;;;;;;;14.27;87.58;100634.33;106237;1271;22617;-54
2022/07/06 05:12:42;;;;;;;18.40;10.50;;;;;;;14.23;87.54;100641.77;105618;1274;22683;-55
2022/07/06 05:15:12;;;;;;;24.00;11.00;;;;;;;14.21;87.74;100644.09;105940;1274;24373;-57
2022/07/06 05:17:40;;;;;;;20.90;10.50;;;;;;;14.19;87.86;100639.12;105692;1274;24385;-55
2022/07/06 05:20:10;;;;;;;21.20;12.00;;;;;;;14.19;87.93;100641.16;105848;1271;24094;-56
2022/07/06 05:22:39;;;;;;;16.40;10.10;;;;;;;14.18;88.11;100642.00;105789;1274;22568;-55
2022/07/06 05:25:10;;;;;;;21.20;12.00;;;;;;;14.18;88.25;100642.25;105780;1274;25312;-53
2022/07/06 05:27:38;;;;;;;19.50;10.80;;;;;;;14.18;88.17;100643.19;105625;1274;26363;-55
2022/07/06 05:30:10;;;;;;;17.50;10.40;;;;;;;14.20;88.33;100645.56;105712;1274;25410;-57
2022/07/06 05:32:39;;;;;;;19.20;9.80;;;;;;;14.22;88.56;100645.61;105626;1274;24348;-55
2022/07/06 05:35:09;;;;;;;20.30;11.40;;;;;;;14.22;88.45;100641.09;105725;1274;22579;-57
2022/07/06 05:37:38;;;;;;;16.90;10.50;;;;;;;14.24;88.46;100642.68;105598;1274;22539;-54
2022/07/06 05:40:10;;;;;;;21.40;12.60;;;;;;;14.26;88.51;100639.98;105658;1274;22696;-54
2022/07/06 05:42:39;;;;;;;27.00;17.40;;;;;;;14.29;88.71;100635.96;105832;1274;22550;-56
2022/07/06 05:45:09;;;;;;;21.10;12.80;;;;;;;14.33;88.83;100636.52;106023;1271;22628;-54
2022/07/06 05:50:28;;;;;;;14.90;7.20;;;;;;;14.40;89.20;100637.36;105646;1274;22569;-59
2022/07/06 05:53:01;;;;;;;11.80;5.50;;;;;;;14.43;89.39;100630.80;105932;1271;24256;-55
2022/07/06 05:55:31;;;;;;;13.40;5.20;;;;;;;14.48;89.24;100627.22;106127;1271;26008;-60
2022/07/06 05:58:00;;;;;;;11.90;4.00;;;;;;;14.54;89.34;100620.23;105896;1271;22566;-56
2022/07/06 06:00:29;;;;;;;11.80;4.40;;;;;;;14.59;89.55;100612.48;106052;1271;24224;-53
2022/07/06 06:03:00;;;;;;;11.50;6.40;;;;;;;14.65;90.10;100610.98;106066;1271;22558;-54
2022/07/06 06:05:29;;;;;;;12.30;5.60;;;;;;;14.70;90.30;100616.02;106194;1271;22579;-55
2022/07/06 06:07:59;;;;;;;13.90;5.20;;;;;;;14.74;90.53;100614.08;105790;1272;25477;-52
2022/07/06 06:10:28;;;;;;;12.90;4.70;;;;;;;14.79;90.04;100605.33;105883;1271;25577;-54
2022/07/06 06:12:57;;;;;;;11.60;3.90;;;;;;;14.83;90.06;100600.70;105844;1272;22598;-54
2022/07/06 06:15:26;;;;;;;10.70;4.00;;;;;;;14.87;90.32;100603.23;105685;1271;24310;-54
2022/07/06 06:17:55;;;;;;;8.40;3.80;;;;;;;14.90;90.44;100598.70;106011;1274;22586;-61
2022/07/06 06:20:24;;;;;;;10.00;3.60;;;;;;;14.94;90.35;100588.15;106743;1274;22562;-55
2022/07/06 06:22:55;;;;;;;7.60;2.90;;;;;;;14.98;90.40;100578.11;105835;1271;22630;-54
2022/07/06 06:25:32;;;;;;;10.00;2.80;;;;;;;15.01;90.45;100585.64;105772;1271;22574;-57
2022/07/06 06:28:02;;;;;;;7.70;2.60;;;;;;;15.03;90.44;100594.29;106264;1271;22839;-60
2022/07/06 06:30:32;;;;;;;;;;;;;;;15.03;90.47;100596.14;105877;1274;22523;-58
2022/07/06 06:33:21;;;;;;;13.00;3.50;;;;;;;15.04;90.35;100592.20;105658;1271;24268;-53
2022/07/06 06:35:54;;;;;;;8.70;2.90;;;;;;;15.06;90.22;100585.73;105923;1274;23598;-55
2022/07/06 06:38:25;;;;;;;8.20;2.50;;;;;;;15.10;90.31;100590.77;105666;1274;22579;-55
2022/07/06 06:40:54;;;;;;;8.90;2.80;;;;;;;15.11;90.01;100614.96;105934;1271;26586;-53
2022/07/06 06:43:23;;;;;;;12.40;3.20;;;;;;;15.05;89.98;100631.31;105847;1271;22596;-57
2022/07/06 06:45:52;;;;;;;12.70;4.30;;;;;;;15.03;90.58;100661.45;106105;1271;25252;-55
2022/07/06 06:48:21;;;;;;;15.40;6.80;;;;;;;15.00;90.97;100662.05;106071;1274;22700;-52
2022/07/06 06:50:50;;;;;;;20.30;11.90;;;;;;;14.99;91.36;100660.52;105870;1271;25324;-57
2022/07/06 06:53:19;;;;;;;16.00;7.70;;;;;;;14.98;91.29;100650.69;105730;1271;24227;-56
2022/07/06 06:55:48;;;;;;;13.90;4.10;;;;;;;15.00;91.19;100661.30;105742;1273;22525;-57
2022/07/06 06:58:17;;;;;;;11.00;3.90;;;;;;;15.00;91.11;100664.88;105658;1271;22650;-51
2022/07/06 07:00:47;;;;;;;12.80;3.90;;;;;;;15.02;91.32;100670.77;105799;1271;25247;-53
2022/07/06 07:03:16;;;;;;;8.80;3.40;;;;;;;15.05;91.22;100674.31;105781;1271;25406;-51
2022/07/06 07:05:46;;;;;;;10.90;3.50;;;;;;;15.08;91.08;100670.75;105868;1274;22694;-50
2022/07/06 07:08:15;;;;;;;10.30;3.10;;;;;;;15.08;90.62;100668.15;105751;1271;27013;-53
2022/07/06 07:10:44;;;;;;;5.80;2.40;;;;;;;15.06;90.52;100665.01;106002;1272;23100;-54
2022/07/06 07:13:13;;;;;;;8.20;2.10;;;;;;;15.06;90.64;100668.45;105973;1271;23028;-55
2022/07/06 07:15:45;;;;;;;10.60;2.10;;;;;;;15.07;90.55;100671.77;105839;1271;24316;-57
2022/07/06 07:18:13;;;;;;;7.30;2.10;;;;;;;15.09;90.87;100672.55;105759;1274;22629;-51
2022/07/06 07:20:43;;;;;;;10.60;3.20;;;;;;;15.13;91.06;100664.60;105765;1272;24321;-53
2022/07/06 07:23:12;;;;;;;8.60;2.60;;;;;;;15.20;91.29;100668.54;105971;1274;25317;-54
2022/07/06 07:25:42;;;;;;;12.00;2.90;;;;;;;15.29;91.31;100668.09;105916;1271;22814;-54
2022/07/06 07:28:11;;;;;;;13.00;4.80;;;;;;;15.41;91.68;100664.65;105869;1271;24231;-54
2022/07/06 07:30:40;;;;;;;8.60;3.30;;;;;;;15.54;91.62;100665.05;105858;1274;25487;-51
2022/07/06 07:33:09;;;;;;;8.70;3.00;;;;;;;15.65;91.54;100664.96;105761;1271;22583;-53
2022/07/06 07:35:37;;;;;;;5.40;1.90;;;;;;;15.74;91.38;100666.80;105612;1270;22569;-52
2022/07/06 07:38:06;;;;;;;7.50;2.00;;;;;;;15.82;90.60;100665.97;105670;1271;22557;-54
2022/07/06 07:40:35;;;;;;;5.20;1.90;;;;;;;15.92;90.57;100664.06;105630;1271;24296;-52
2022/07/06 07:43:04;;;;;;;9.00;1.80;;;;;;;16.01;89.67;100660.00;105745;1272;22556;-57
2022/07/06 07:45:33;;;;;;;6.30;1.60;;;;;;;16.09;90.08;100657.63;105871;1271;24201;-56
2022/07/06 07:48:02;;;;;;;4.60;1.60;;;;;;;16.21;89.44;100655.52;106030;1272;25249;-51
2022/07/06 07:50:31;;;;;;;4.50;1.40;;;;;;;16.35;89.79;100653.17;105911;1271;22579;-54
2022/07/06 07:52:59;;;;;;;5.40;1.30;;;;;;;16.48;89.21;100655.69;106051;1273;24243;-53
2022/07/06 07:55:28;;;;;;;6.50;1.60;;;;;;;16.61;89.03;100653.16;105763;1271;23971;-51
2022/07/06 07:57:59;;;;;;;5.30;1.50;;;;;;;16.74;88.63;100653.77;105806;1271;24296;-53
2022/07/06 08:00:28;;;;;;;5.30;1.40;;;;;;;16.85;87.78;100658.80;105746;1274;23363;-51
2022/07/06 08:02:56;;;;;;;7.30;1.20;;;;;;;16.94;87.49;100659.73;105679;1271;23559;-55
2022/07/06 08:05:26;;;;;;;5.80;1.50;;;;;;;17.03;86.72;100662.81;105818;1271;25349;-51
2022/07/06 08:07:55;;;;;;;4.00;1.30;;;;;;;17.08;85.88;100664.54;105833;1271;22557;-56
2022/07/06 08:10:24;;;;;;;4.50;1.30;;;;;;;17.16;85.68;100665.77;106215;1270;22563;-54
2022/07/06 08:12:53;;;;;;;3.60;1.40;;;;;;;17.24;85.76;100670.83;105785;1272;25089;-54
2022/07/06 08:15:22;;;;;;;4.60;1.30;;;;;;;17.34;85.23;100668.52;105766;1270;22654;-54
2022/07/06 08:17:51;;;;;;;4.50;1.70;;;;;;;17.45;85.26;100673.67;105692;1273;22556;-52
2022/07/06 08:20:21;;;;;;;4.80;1.30;;;;;;;17.56;84.97;100672.81;105800;1271;24256;-53
2022/07/06 08:22:49;;;;;;;4.80;1.60;;;;;;;17.67;84.59;100676.48;106049;1270;22536;-52
2022/07/06 08:25:18;;;;;;;6.40;1.70;;;;;;;17.76;84.38;100675.83;105819;1271;22576;-52
2022/07/06 08:27:48;;;;;;;7.60;1.60;;;;;;;17.86;84.27;100676.92;105856;1273;23009;-57
2022/07/06 08:30:16;;;;;;;6.90;1.90;;;;;;;17.95;83.41;100669.75;105891;1274;22846;-53
2022/07/06 08:32:46;;;;;;;6.30;1.60;;;;;;;18.03;83.22;100669.41;105854;1271;22623;-59
2022/07/06 08:35:15;;;;;;;6.00;1.80;;;;;;;18.12;83.84;100669.52;105740;1271;25315;-57
2022/07/06 08:37:45;;;;;;;7.90;1.50;;;;;;;18.22;83.40;100669.58;106255;1271;22569;-56
2022/07/06 08:40:14;;;;;;;7.50;1.60;;;;;;;18.31;83.27;100668.49;105865;1273;22573;-59
2022/07/06 08:42:48;;;;;;;5.60;1.30;;;;;;;18.39;82.95;100666.24;105924;1273;26260;-54
2022/07/06 08:45:17;;;;;;;9.60;1.50;;;;;;;18.44;81.53;100670.76;105739;1272;22563;-51
2022/07/06 08:47:50;;;;;;;8.10;2.20;;;;;;;18.48;80.86;100666.78;105713;1273;22774;-54
2022/07/06 08:50:20;;;;;;;6.30;1.30;;;;;;;18.55;80.99;100664.51;105594;1273;24299;-58
2022/07/06 08:52:50;;;;;;;4.20;1.20;;;;;;;18.61;81.15;100659.95;105964;1271;22483;-59
2022/07/06 08:55:18;;;;;;;;;;;;;;;18.72;80.73;100659.61;105849;1273;25228;-53
2022/07/06 08:57:48;;;;;;;4.80;1.20;;;;;;;18.83;79.50;100662.73;105685;1274;23171;-50
2022/07/06 09:00:17;;;;;;;3.20;1.00;;;;;;;18.85;77.76;100658.80;105771;1273;22563;-52
2022/07/06 09:02:46;;;;;;;3.50;1.30;;;;;;;18.89;78.60;100656.29;105646;1273;22655;-57
2022/07/06 09:05:16;;;;;;;4.30;1.10;;;;;;;18.97;78.15;100652.48;105841;1273;22783;-54
2022/07/06 09:07:48;;;;;;;6.60;0.90;;;;;;;19.05;77.65;100652.91;106005;1273;24225;-55
2022/07/06 09:10:19;;;;;;;5.90;1.20;;;;;;;19.08;75.58;100652.84;105674;1273;25419;-50
2022/07/06 09:12:49;;;;;;;4.00;0.90;;;;;;;19.11;75.55;100651.16;105741;1273;22551;-54
2022/07/06 09:15:18;;;;;;;4.00;0.80;;;;;;;19.20;75.56;100650.15;105696;1273;22557;-53
2022/07/06 09:17:47;;;;;;;4.00;0.90;;;;;;;19.29;74.80;100645.89;105842;1273;22716;-57
2022/07/06 09:20:16;;;;;;;5.70;0.90;;;;;;;19.39;74.73;100641.80;105719;1273;22693;-51
2022/07/06 09:22:44;;;;;;;5.00;1.20;;;;;;;19.50;74.04;100642.52;105756;1273;23530;-56
2022/07/06 09:25:16;;;;;;;4.40;0.90;;;;;;;19.61;73.35;100640.44;105724;1273;22574;-52
2022/07/06 09:27:47;;;;;;;5.60;0.90;;;;;;;19.67;72.15;100642.48;106240;1273;22791;-54
2022/07/06 09:30:17;;;;;;;3.60;0.90;;;;;;;19.75;70.71;100639.13;106325;1273;22561;-54
2022/07/06 09:32:48;;;;;;;5.20;1.00;;;;;;;19.80;70.83;100634.42;106414;1274;22563;-54
2022/07/06 09:35:23;;;;;;;6.50;1.00;;;;;;;19.80;70.78;100639.07;106351;1273;22546;-52
2022/07/06 09:38:03;;;;;;;5.40;1.10;;;;;;;19.80;70.47;100639.73;106255;1271;25489;-54
2022/07/06 09:40:34;;;;;;;4.60;1.20;;;;;;;19.90;70.49;100635.03;106430;1271;22811;-55
2022/07/06 09:43:11;;;;;;;7.20;1.10;;;;;;;20.02;69.63;100634.98;106973;1259;22539;-62
2022/07/06 09:45:41;;;;;;;6.10;1.10;;;;;;;20.11;69.33;100629.69;106088;1273;22599;-62
2022/07/06 09:48:13;;;;;;;5.70;1.10;;;;;;;20.14;68.50;100632.86;105718;1273;24216;-62
2022/07/06 09:50:45;;;;;;;7.60;1.20;;;;;;;20.23;69.02;100629.00;105788;1273;24256;-63
2022/07/06 09:53:15;;;;;;;14.10;2.00;;;;;;;20.32;67.78;100633.03;105839;1274;24339;-63
2022/07/06 09:55:48;;;;;;;6.20;1.20;;;;;;;20.37;66.20;100634.00;105907;1273;22549;-63
2022/07/06 09:58:19;;;;;;;6.50;1.30;;;;;;;20.43;67.08;100624.21;106001;1274;25383;-63
2022/07/06 10:00:49;;;;;;;5.90;1.20;;;;;;;20.49;66.97;100624.06;105697;1273;22643;-61
2022/07/06 10:03:19;;;;;;;7.00;1.20;;;;;;;20.55;66.00;100624.14;106351;1273;22625;-62
2022/07/06 10:05:47;;;;;;;;;;;;;;;20.60;66.26;100623.29;106012;1273;22537;-63
2022/07/06 10:08:17;;;;;;;5.00;1.20;;;;;;;20.70;66.25;100622.55;105824;1274;25374;-63
2022/07/06 10:10:48;;;;;;;5.80;1.40;;;;;;;20.83;65.46;100624.70;106124;1273;22579;-62
2022/07/06 10:13:22;;;;;;;5.50;0.90;;;;;;;20.86;63.65;100628.52;105854;1273;24304;-62
2022/07/06 10:15:52;;;;;;;5.30;0.90;;;;;;;20.80;63.13;100628.21;105840;1273;25480;-62
2022/07/06 10:18:21;;;;;;;4.90;0.90;;;;;;;20.77;63.87;100625.02;105971;1273;22891;-62
2022/07/06 10:20:55;;;;;;;5.00;1.10;;;;;;;20.81;62.68;100624.83;106068;1273;26583;-63
2022/07/06 10:23:27;;;;;;;3.10;0.80;;;;;;;20.87;61.30;100626.08;107016;1273;22600;-64
2022/07/06 10:26:04;;;;;;;5.20;1.20;;;;;;;20.90;61.53;100621.59;105853;1273;22765;-65
2022/07/06 10:28:38;;;;;;;8.10;1.00;;;;;;;20.96;61.66;100612.06;106012;1274;24244;-68
2022/07/06 10:31:10;;;;;;;4.50;1.10;;;;;;;21.07;61.56;100611.27;105983;1273;25647;-65
2022/07/06 10:33:42;;;;;;;3.80;1.00;;;;;;;21.16;61.48;100608.73;106058;1273;22576;-65
2022/07/06 10:36:14;;;;;;;4.60;0.80;;;;;;;21.27;59.49;100607.59;105891;1273;22550;-64
2022/07/06 10:38:50;;;;;;;5.10;0.90;;;;;;;21.37;56.78;100606.95;105757;1273;24329;-66
2022/07/06 10:41:30;;;;;;;5.10;0.80;;;;;;;21.44;56.11;100605.31;105887;1273;25277;-65
2022/07/06 10:44:14;;;;;;;4.70;0.50;;;;;;;21.48;55.70;100604.36;105959;1273;22540;-64
2022/07/06 10:46:54;;;;;;;4.00;0.70;;;;;;;21.60;55.97;100603.42;105764;1273;22641;-65
2022/07/06 10:49:23;;;;;;;;;;;;;;;21.71;54.68;100607.90;105717;1274;24233;-65
2022/07/06 10:51:52;;;;;;;3.70;0.60;;;;;;;21.81;53.58;100613.56;105791;1274;22562;-65
2022/07/06 10:54:23;;;;;;;7.10;0.60;;;;;;;21.92;54.23;100606.46;105998;1274;22540;-65
2022/07/06 10:56:53;;;;;;;1.80;0.60;;;;;;;22.02;53.73;100605.31;105735;1273;25240;-65
2022/07/06 10:59:23;;;;;;;3.30;0.60;;;;;;;22.09;52.68;100607.84;105990;1273;24199;-66
2022/07/06 11:02:14;;;;;;;4.30;0.70;;;;;;;22.18;51.64;100609.41;105879;1273;26507;-64
2022/07/06 11:04:44;;;;;;;3.20;0.80;;;;;;;22.27;52.47;100608.11;106004;1273;24431;-65
2022/07/06 11:07:15;;;;;;;3.80;0.70;;;;;;;22.30;51.99;100599.66;105798;1273;22535;-64
2022/07/06 11:09:55;;;;;;;3.20;0.50;;;;;;;22.27;49.51;100603.34;105890;1273;24312;-67
2022/07/06 11:12:24;;;;;;;3.80;0.60;;;;;;;22.23;49.29;100602.30;105838;1273;24367;-65
2022/07/06 11:14:54;;;;;;;7.00;1.00;;;;;;;22.26;49.74;100601.25;105664;1273;23043;-66
2022/07/06 11:17:23;;;;;;;5.00;0.60;;;;;;;22.33;49.31;100607.85;105873;1274;22639;-67
2022/07/06 11:19:57;;;;;;;3.80;0.70;;;;;;;22.37;49.63;100608.61;105896;1273;24313;-65
2022/07/06 11:22:30;;;;;;;8.00;0.80;;;;;;;22.38;49.70;100607.70;105886;1272;25485;-67
2022/07/06 11:24:59;;;;;;;6.50;0.70;;;;;;;22.36;49.23;100610.58;105886;1273;22583;-66
2022/07/06 11:27:29;;;;;;;3.40;0.70;;;;;;;22.29;48.82;100608.11;105956;1273;25540;-65
2022/07/06 11:29:58;;;;;;;5.40;1.10;;;;;;;22.22;49.02;100615.35;105862;1273;22712;-65